Time;durP1;ratioP1;P1;durP2;ratioP2;P2;SDS_P1;SDS_P2;PMS_P1;PMS_P2;Temp;Humidity;BMP_temperature;BMP_pressure;BME280_temperature;BME280_humidity;BME280_pressure;Samples;Min_cycle;Max_cycle;Signal;HPM_P1;HPM_P2
2022/05/20 00:02:24;;;;;;;5.05;3.05;;;;;;;19.68;84.73;96425.44;4990966;28;25005;-77
2022/05/20 00:04:50;;;;;;;3.50;2.33;;;;;;;19.68;85.22;96422.81;4990816;28;24436;-77
2022/05/20 00:07:17;;;;;;;3.67;2.55;;;;;;;19.66;85.24;96426.56;4990983;28;24487;-77
2022/05/20 00:09:43;;;;;;;7.30;2.33;;;;;;;19.63;85.60;96426.84;4991102;28;25139;-77
2022/05/20 00:12:12;;;;;;;4.18;2.30;;;;;;;19.53;86.85;96427.59;4991067;28;24467;-77
2022/05/20 00:14:38;;;;;;;5.47;2.78;;;;;;;19.50;87.84;96419.16;4990805;28;24779;-77
2022/05/20 00:17:05;;;;;;;4.78;2.67;;;;;;;19.50;88.42;96417.34;4991119;28;24413;-77
2022/05/20 00:19:32;;;;;;;6.95;2.80;;;;;;;19.55;88.90;96420.44;4994869;28;24959;-77
2022/05/20 00:21:59;;;;;;;5.30;2.60;;;;;;;19.57;88.68;96401.88;4995356;28;24432;-77
2022/05/20 00:24:26;;;;;;;4.75;2.75;;;;;;;19.54;88.60;96407.41;4994949;28;24978;-77
2022/05/20 00:26:52;;;;;;;6.15;2.75;;;;;;;19.33;90.79;96410.16;4995020;28;25009;-77
2022/05/20 00:29:20;;;;;;;4.33;3.00;;;;;;;19.34;90.74;96409.19;4995136;28;24421;-76
2022/05/20 00:31:47;;;;;;;4.33;2.87;;;;;;;19.27;91.48;96397.53;4994885;28;24508;-76
2022/05/20 00:34:13;;;;;;;6.57;3.50;;;;;;;19.06;94.68;96408.16;4994332;28;24436;-77
2022/05/20 00:36:40;;;;;;;6.63;3.13;;;;;;;18.97;95.06;96407.13;4994388;28;24429;-77
2022/05/20 00:39:06;;;;;;;7.85;3.28;;;;;;;19.00;95.11;96416.53;4994790;28;24448;-78
2022/05/20 00:41:33;;;;;;;4.13;3.00;;;;;;;19.05;94.28;96416.97;4994836;28;24822;-77
2022/05/20 00:43:59;;;;;;;5.35;3.00;;;;;;;19.03;95.02;96403.97;4994403;28;24431;-77
2022/05/20 00:46:29;;;;;;;6.13;3.10;;;;;;;19.02;94.68;96398.84;4994409;28;24417;-77
2022/05/20 00:49:00;;;;;;;4.35;2.83;;;;;;;19.04;95.01;96394.31;4994348;28;24423;-77
2022/05/20 00:51:30;;;;;;;5.40;3.38;;;;;;;19.01;95.40;96391.94;4994780;28;24425;-77
2022/05/20 00:54:01;;;;;;;6.22;3.30;;;;;;;18.90;96.36;96384.16;4994615;28;24795;-77
2022/05/20 00:56:33;;;;;;;12.75;3.75;;;;;;;18.72;97.93;96384.78;4994259;28;24520;-76
2022/05/20 00:58:59;;;;;;;9.30;3.85;;;;;;;18.70;98.59;96380.63;4994657;28;24552;-77
2022/05/20 01:01:28;;;;;;;10.05;3.58;;;;;;;18.75;98.74;96381.91;4994086;28;24822;-77
2022/05/20 01:03:56;;;;;;;5.78;3.53;;;;;;;18.73;98.84;96383.00;4993875;28;25066;-77
2022/05/20 01:06:24;;;;;;;7.80;3.83;;;;;;;18.73;98.66;96390.88;4994219;28;24428;-77
2022/05/20 01:08:50;;;;;;;8.68;3.70;;;;;;;18.64;99.49;96384.56;4994209;28;24423;-77
2022/05/20 01:11:17;;;;;;;4.97;3.10;;;;;;;18.68;99.49;96385.97;4994216;28;24424;-77
2022/05/20 01:13:47;;;;;;;4.32;3.30;;;;;;;18.58;100.00;96390.38;4994524;28;24425;-77
2022/05/20 01:16:15;;;;;;;4.55;3.53;;;;;;;18.47;100.00;96400.94;4998606;28;24524;-76
2022/05/20 01:18:46;;;;;;;11.68;3.67;;;;;;;18.53;100.00;96379.41;4998349;28;24484;-77
2022/05/20 01:21:14;;;;;;;10.15;3.80;;;;;;;18.43;100.00;96382.00;4994417;28;24966;-76
2022/05/20 01:23:41;;;;;;;6.30;3.78;;;;;;;18.33;100.00;96379.31;4993814;28;24983;-76
2022/05/20 01:26:08;;;;;;;5.63;3.60;;;;;;;18.37;100.00;96383.34;4993772;28;25009;-77
2022/05/20 01:28:35;;;;;;;7.10;3.38;;;;;;;18.46;100.00;96378.28;4993793;28;24413;-76
2022/05/20 01:31:05;;;;;;;7.37;3.53;;;;;;;18.48;100.00;96374.56;4993629;28;24509;-78
2022/05/20 01:33:34;;;;;;;4.32;3.30;;;;;;;18.46;100.00;96379.09;4993667;28;24429;-77
2022/05/20 01:36:02;;;;;;;8.85;3.75;;;;;;;18.52;100.00;96372.50;4993501;28;24425;-77
2022/05/20 01:38:30;;;;;;;5.40;3.85;;;;;;;18.54;100.00;96363.56;4993698;28;24441;-77
2022/05/20 01:41:02;;;;;;;6.57;3.78;;;;;;;18.52;100.00;96368.09;4993563;28;24417;-78
2022/05/20 01:43:48;;;;;;;8.87;3.67;;;;;;;18.44;100.00;96365.31;4993224;28;24964;-77
2022/05/20 01:46:25;;;;;;;5.85;3.78;;;;;;;18.37;100.00;96366.78;4993392;28;24433;-78
2022/05/20 01:48:59;;;;;;;8.57;3.83;;;;;;;18.21;100.00;96374.28;4993587;28;24503;-77
2022/05/20 01:51:33;;;;;;;8.65;3.83;;;;;;;18.02;100.00;96367.94;4993324;28;24533;-77
2022/05/20 01:54:05;;;;;;;9.48;4.10;;;;;;;17.80;100.00;96368.06;4992980;28;24424;-77
2022/05/20 01:56:37;;;;;;;7.53;4.47;;;;;;;17.55;100.00;96367.41;4993317;28;24463;-76
2022/05/20 01:59:09;;;;;;;7.32;3.83;;;;;;;17.44;100.00;96369.25;4993024;28;25022;-76
2022/05/20 02:01:39;;;;;;;10.63;4.28;;;;;;;17.39;100.00;96366.97;4993041;28;24416;-77
2022/05/20 02:04:10;;;;;;;10.45;4.30;;;;;;;17.52;100.00;96370.28;4992719;28;24436;-76
2022/05/20 02:06:42;;;;;;;7.25;4.35;;;;;;;17.66;100.00;96364.75;4992821;28;24961;-77
2022/05/20 02:09:13;;;;;;;5.55;4.07;;;;;;;17.80;100.00;96360.22;4993104;28;24458;-77
2022/05/20 02:11:45;;;;;;;4.97;3.80;;;;;;;17.85;100.00;96365.88;4992814;28;24965;-77
2022/05/20 02:14:24;;;;;;;6.18;3.78;;;;;;;17.93;100.00;96366.06;4992554;28;24453;-76
2022/05/20 02:16:55;;;;;;;7.85;3.90;;;;;;;18.02;100.00;96362.72;4993109;28;24436;-77
2022/05/20 02:19:28;;;;;;;3.80;3.40;;;;;;;18.10;100.00;96356.81;4992851;28;24445;-76
2022/05/20 02:21:57;;;;;;;7.47;4.05;;;;;;;18.11;100.00;96369.78;4992828;28;24424;-76
2022/05/20 02:24:28;;;;;;;8.13;4.10;;;;;;;18.13;100.00;96362.66;4992362;28;24464;-76
2022/05/20 02:27:00;;;;;;;7.18;4.10;;;;;;;18.13;100.00;96369.66;4992422;28;24966;-75
2022/05/20 02:29:31;;;;;;;6.15;3.90;;;;;;;18.18;100.00;96364.06;4992722;28;24421;-77
2022/05/20 02:32:04;;;;;;;5.53;3.93;;;;;;;18.11;100.00;96367.16;4992662;28;24421;-77
2022/05/20 02:34:34;;;;;;;8.00;4.00;;;;;;;18.07;100.00;96367.56;4991950;28;25042;-77
2022/05/20 02:37:01;;;;;;;4.85;3.70;;;;;;;17.99;100.00;96373.44;4992840;28;24468;-75
2022/05/20 02:39:27;;;;;;;5.80;3.60;;;;;;;17.93;100.00;96360.00;4992454;28;24453;-74
2022/05/20 02:41:56;;;;;;;4.90;3.80;;;;;;;17.76;100.00;96364.00;4992265;28;24508;-74
2022/05/20 02:44:22;;;;;;;4.22;3.67;;;;;;;17.62;100.00;96362.50;4992511;28;24985;-75
2022/05/20 02:46:48;;;;;;;7.03;4.13;;;;;;;17.52;100.00;96369.44;4992910;28;24452;-77
2022/05/20 02:49:15;;;;;;;5.30;3.95;;;;;;;17.37;100.00;96358.41;4992814;28;24425;-75
2022/05/20 02:51:42;;;;;;;6.03;4.18;;;;;;;17.29;100.00;96355.59;4992728;28;24433;-74
2022/05/20 02:54:08;;;;;;;5.65;3.67;;;;;;;17.27;100.00;96357.50;4991922;28;24429;-74
2022/05/20 02:56:37;;;;;;;6.13;4.18;;;;;;;17.28;100.00;96353.91;4992239;28;24834;-75
2022/05/20 03:04:33;;;;;;;8.90;4.35;;;;;;;17.37;100.00;96358.41;4991889;28;24459;-77
2022/05/20 03:07:00;;;;;;;8.30;4.57;;;;;;;17.34;100.00;96361.28;4992649;28;24475;-75
2022/05/20 03:09:27;;;;;;;6.22;3.78;;;;;;;17.45;100.00;96361.25;4992200;28;24437;-74
2022/05/20 03:11:54;;;;;;;7.65;4.25;;;;;;;17.53;100.00;96364.06;4992192;28;24470;-76
2022/05/20 03:14:24;;;;;;;12.00;4.47;;;;;;;17.51;100.00;96352.91;4992075;28;25010;-74
2022/05/20 03:16:51;;;;;;;9.27;4.18;;;;;;;17.56;100.00;96353.34;4992108;28;24420;-75
2022/05/20 03:19:18;;;;;;;4.60;3.95;;;;;;;17.62;100.00;96355.47;4992428;28;24552;-76
2022/05/20 03:21:45;;;;;;;7.05;4.63;;;;;;;17.64;100.00;96361.41;4991940;28;24428;-75
2022/05/20 03:24:12;;;;;;;7.30;4.10;;;;;;;17.68;100.00;96359.38;4991146;28;24624;-75
2022/05/20 03:26:40;;;;;;;6.55;3.83;;;;;;;17.72;100.00;96357.31;4991710;28;24487;-75
2022/05/20 03:29:06;;;;;;;10.88;3.97;;;;;;;17.71;100.00;96356.50;4991517;28;24417;-75
2022/05/20 03:31:36;;;;;;;4.10;3.70;;;;;;;17.72;100.00;96358.16;4991712;28;24847;-75
2022/05/20 03:34:05;;;;;;;9.15;4.72;;;;;;;17.71;100.00;96360.91;4991544;28;24950;-74
2022/05/20 03:36:33;;;;;;;12.70;4.38;;;;;;;17.77;100.00;96356.03;4991288;28;24472;-75
2022/05/20 03:38:59;;;;;;;5.97;3.85;;;;;;;17.77;100.00;96352.59;4991595;28;24547;-75
2022/05/20 03:41:26;;;;;;;7.93;4.05;;;;;;;17.71;100.00;96353.88;4991392;28;24436;-75
2022/05/20 03:43:52;;;;;;;7.65;4.63;;;;;;;17.73;100.00;96353.78;4990849;28;24494;-75
2022/05/20 03:46:18;;;;;;;5.57;3.75;;;;;;;17.70;100.00;96344.38;4990891;28;24816;-75
2022/05/20 03:48:46;;;;;;;5.28;3.85;;;;;;;17.74;100.00;96351.00;4991522;28;24479;-75
2022/05/20 03:51:14;;;;;;;4.85;4.25;;;;;;;17.69;100.00;96350.56;4991519;28;24429;-75
2022/05/20 03:53:42;;;;;;;6.63;3.90;;;;;;;17.69;100.00;96355.81;4990923;28;24432;-75
2022/05/20 03:56:09;;;;;;;8.30;4.45;;;;;;;17.68;100.00;96348.88;4991307;28;24830;-74
2022/05/20 03:58:36;;;;;;;6.57;4.22;;;;;;;17.63;100.00;96348.44;4991197;28;24445;-75
2022/05/20 04:03:48;;;;;;;8.52;4.00;;;;;;;17.52;100.00;96345.88;4991352;28;24539;-74
2022/05/20 04:06:15;;;;;;;8.93;4.77;;;;;;;17.50;100.00;96343.38;4991328;28;24436;-75
2022/05/20 04:08:42;;;;;;;6.47;3.80;;;;;;;17.49;100.00;96351.34;4991017;28;24428;-75
2022/05/20 04:11:11;;;;;;;5.25;4.13;;;;;;;17.39;100.00;96351.25;4994368;28;24421;-75
2022/05/20 04:13:39;;;;;;;7.03;4.30;;;;;;;17.01;100.00;96346.47;4996702;28;24931;-74
2022/05/20 04:16:05;;;;;;;8.80;4.78;;;;;;;16.96;100.00;96348.66;4993067;28;24447;-75
2022/05/20 04:18:32;;;;;;;7.70;4.50;;;;;;;17.10;100.00;96351.00;4991586;28;24460;-74
2022/05/20 04:21:00;;;;;;;5.35;4.20;;;;;;;17.21;100.00;96352.75;4992432;28;24422;-74
2022/05/20 04:23:26;;;;;;;5.22;3.92;;;;;;;17.22;100.00;96357.88;4991951;28;24767;-75
2022/05/20 04:25:53;;;;;;;6.55;3.97;;;;;;;17.22;100.00;96357.03;4992330;28;24417;-74
2022/05/20 04:28:19;;;;;;;5.57;4.13;;;;;;;17.22;100.00;96349.19;4987637;28;24500;-76
2022/05/20 04:30:46;;;;;;;6.90;4.82;;;;;;;17.21;100.00;96355.38;4992364;28;24441;-75
2022/05/20 04:33:13;;;;;;;9.75;4.32;;;;;;;17.19;100.00;96350.25;4995577;28;24471;-74
2022/05/20 04:35:40;;;;;;;6.05;4.30;;;;;;;17.20;100.00;96354.53;5011198;28;24528;-75
2022/05/20 04:38:08;;;;;;;5.45;3.90;;;;;;;17.21;100.00;96355.38;5010659;28;24424;-74
2022/05/20 04:40:34;;;;;;;8.25;4.30;;;;;;;17.21;100.00;96358.00;5010494;28;25012;-75
2022/05/20 04:48:28;;;;;;;9.57;4.90;;;;;;;17.27;100.00;96352.25;5010908;28;24455;-74
2022/05/20 04:50:54;;;;;;;6.07;4.20;;;;;;;17.38;100.00;96355.66;5011164;28;24428;-75
2022/05/20 04:56:03;;;;;;;6.40;4.63;;;;;;;17.49;100.00;96365.28;4990825;28;24528;-74
2022/05/20 04:58:29;;;;;;;5.20;4.57;;;;;;;17.44;100.00;96364.81;4991298;28;24429;-74
2022/05/20 05:00:56;;;;;;;6.85;4.00;;;;;;;17.47;100.00;96358.53;4991337;28;24429;-74
2022/05/20 05:03:23;;;;;;;6.47;4.30;;;;;;;17.57;100.00;96359.41;4990114;28;24425;-75
2022/05/20 05:05:49;;;;;;;10.43;4.70;;;;;;;17.63;100.00;96359.75;4993682;28;24462;-74
2022/05/20 05:08:17;;;;;;;6.18;4.47;;;;;;;17.57;100.00;96354.19;4994634;28;24959;-74
2022/05/20 05:10:45;;;;;;;5.18;4.30;;;;;;;17.62;100.00;96357.28;4994293;28;24456;-74
2022/05/20 05:13:13;;;;;;;7.80;5.00;;;;;;;17.61;100.00;96360.81;4992823;28;24436;-74
2022/05/20 05:15:42;;;;;;;6.72;4.93;;;;;;;17.54;100.00;96363.13;4994163;28;24440;-75
2022/05/20 05:18:12;;;;;;;7.72;4.40;;;;;;;17.60;100.00;96365.22;4994187;28;24998;-73
2022/05/20 05:20:43;;;;;;;8.48;4.60;;;;;;;17.67;100.00;96362.94;4993989;28;24460;-73
2022/05/20 05:23:09;;;;;;;12.30;5.70;;;;;;;17.69;100.00;96371.53;4991281;28;24448;-73
2022/05/20 05:25:36;;;;;;;5.57;4.95;;;;;;;17.80;100.00;96376.75;4985073;28;24446;-73
2022/05/20 05:28:06;;;;;;;9.57;5.10;;;;;;;17.90;100.00;96375.00;4985946;28;24444;-73
2022/05/20 05:30:33;;;;;;;9.43;5.30;;;;;;;17.99;100.00;96372.63;4989471;28;24433;-73
2022/05/20 05:33:00;;;;;;;9.07;5.63;;;;;;;18.12;100.00;96368.81;4990601;28;24843;-73
2022/05/20 05:35:28;;;;;;;11.68;5.95;;;;;;;18.04;100.00;96370.44;4993524;28;24440;-73
2022/05/20 05:37:55;;;;;;;10.07;4.82;;;;;;;18.27;100.00;96376.38;4993976;28;24416;-72
2022/05/20 05:40:24;;;;;;;7.45;4.75;;;;;;;18.44;100.00;96372.34;4993775;28;24464;-74
2022/05/20 05:42:51;;;;;;;7.88;5.07;;;;;;;18.51;100.00;96365.63;4993606;28;24428;-73
2022/05/20 05:45:21;;;;;;;9.15;5.30;;;;;;;18.40;100.00;96368.31;4993557;28;24436;-73
2022/05/20 05:47:52;;;;;;;9.07;4.70;;;;;;;18.60;100.00;96367.44;4993854;28;24439;-74
2022/05/20 05:50:20;;;;;;;10.23;5.60;;;;;;;18.68;100.00;96372.84;4994045;28;24463;-73
2022/05/20 05:52:46;;;;;;;14.18;6.00;;;;;;;18.60;100.00;96368.25;4993732;28;24977;-73
2022/05/20 05:55:13;;;;;;;7.57;5.40;;;;;;;18.64;100.00;96366.22;4993921;28;25041;-73
2022/05/20 05:57:40;;;;;;;5.88;5.07;;;;;;;18.62;100.00;96366.34;4993989;28;24544;-73
2022/05/20 06:00:08;;;;;;;8.32;5.13;;;;;;;18.63;100.00;96359.31;4993790;28;24487;-73
2022/05/20 06:02:35;;;;;;;6.97;4.72;;;;;;;18.77;100.00;96356.38;4993868;28;24440;-73
2022/05/20 06:05:02;;;;;;;9.88;5.32;;;;;;;18.82;100.00;96364.66;4993471;28;24436;-75
2022/05/20 06:07:28;;;;;;;8.30;4.77;;;;;;;18.98;100.00;96365.94;4993449;28;24428;-72
2022/05/20 06:09:55;;;;;;;7.53;4.82;;;;;;;19.05;100.00;96365.28;4993461;28;24827;-72
2022/05/20 06:12:21;;;;;;;7.82;5.30;;;;;;;19.19;100.00;96368.50;4994045;28;24417;-72
2022/05/20 06:14:48;;;;;;;7.80;4.85;;;;;;;19.13;100.00;96367.22;4993417;28;24532;-72
2022/05/20 06:17:15;;;;;;;6.50;4.78;;;;;;;19.30;100.00;96369.22;4993474;28;24788;-72
2022/05/20 06:19:43;;;;;;;7.45;4.90;;;;;;;19.46;100.00;96365.22;4992937;28;24967;-72
2022/05/20 06:22:10;;;;;;;5.85;4.50;;;;;;;19.69;97.04;96364.06;4993301;28;24421;-71
2022/05/20 06:24:38;;;;;;;7.72;4.68;;;;;;;19.83;96.18;96365.41;4992858;28;24425;-72
2022/05/20 06:27:05;;;;;;;5.88;4.20;;;;;;;20.01;94.61;96357.66;4993106;28;24978;-72
2022/05/20 06:29:31;;;;;;;9.20;4.78;;;;;;;20.24;92.62;96366.88;4993358;28;24433;-72
2022/05/20 06:31:58;;;;;;;11.32;4.85;;;;;;;20.30;90.57;96366.34;4993084;28;24416;-72
2022/05/20 06:34:24;;;;;;;15.85;5.05;;;;;;;20.22;89.76;96363.59;4992861;28;24432;-72
2022/05/20 06:39:51;;;;;;;9.60;4.73;;;;;;;20.19;90.23;96363.03;4993009;28;24452;-72
2022/05/20 06:42:19;;;;;;;7.65;4.68;;;;;;;20.30;89.60;96362.88;4993101;28;24911;-72
2022/05/20 06:44:46;;;;;;;8.15;4.25;;;;;;;20.57;86.95;96356.03;4992788;28;24467;-72
2022/05/20 06:47:13;;;;;;;8.52;4.25;;;;;;;20.77;84.64;96355.00;4993029;28;24432;-72
2022/05/20 06:49:39;;;;;;;9.20;4.40;;;;;;;20.89;83.33;96359.09;4992546;28;24425;-73
2022/05/20 06:52:07;;;;;;;6.85;4.07;;;;;;;21.11;82.82;96352.63;4992618;28;24461;-73
2022/05/20 06:54:34;;;;;;;4.70;3.70;;;;;;;21.24;81.25;96354.88;4991972;28;24435;-72
2022/05/20 06:57:01;;;;;;;12.55;4.25;;;;;;;21.44;79.29;96353.00;4991929;28;24974;-72
2022/05/20 06:59:27;;;;;;;5.03;3.33;;;;;;;21.72;78.52;96359.84;4991931;28;24541;-72
2022/05/20 07:01:54;;;;;;;9.60;4.28;;;;;;;21.81;76.78;96363.41;4992398;28;24421;-71
2022/05/20 07:04:20;;;;;;;6.07;3.90;;;;;;;21.81;76.74;96355.50;4991437;28;24795;-72
2022/05/20 07:06:47;;;;;;;6.50;4.03;;;;;;;22.04;78.01;96365.56;4991752;28;25009;-72
2022/05/20 07:09:15;;;;;;;6.93;4.10;;;;;;;22.22;76.76;96359.31;4991888;28;24975;-72
2022/05/20 07:11:42;;;;;;;10.20;4.32;;;;;;;22.41;74.46;96347.72;4991842;28;24432;-72
2022/05/20 07:14:08;;;;;;;6.97;4.57;;;;;;;22.46;73.78;96349.91;4991482;28;24425;-72
2022/05/20 07:16:35;;;;;;;9.90;4.53;;;;;;;22.50;73.18;96351.25;4991510;28;24471;-72
2022/05/20 07:19:01;;;;;;;8.38;4.07;;;;;;;22.64;72.49;96342.75;4991816;28;24420;-72
2022/05/20 07:21:28;;;;;;;8.43;4.63;;;;;;;22.70;72.42;96342.13;4991676;28;24535;-72
2022/05/20 07:23:55;;;;;;;8.15;3.78;;;;;;;22.97;71.83;96340.28;4991441;28;24508;-72
2022/05/20 07:26:23;;;;;;;5.65;3.30;;;;;;;23.36;70.29;96339.72;4991469;28;24480;-72
2022/05/20 07:28:50;;;;;;;5.85;3.65;;;;;;;23.45;69.10;96332.66;4990994;28;24416;-72
2022/05/20 07:31:17;;;;;;;5.03;3.55;;;;;;;23.55;68.75;96325.41;4991367;28;24429;-72
2022/05/20 07:33:44;;;;;;;9.50;3.70;;;;;;;23.74;68.37;96334.88;4991213;28;25004;-73
2022/05/20 07:36:10;;;;;;;8.60;4.10;;;;;;;23.79;67.83;96336.03;4991169;28;24472;-73
2022/05/20 07:38:37;;;;;;;12.07;4.50;;;;;;;24.03;66.50;96337.03;4991331;28;24450;-73
2022/05/20 07:41:03;;;;;;;7.60;3.80;;;;;;;24.06;66.75;96334.03;4991248;28;24499;-73
2022/05/20 07:43:32;;;;;;;6.43;3.63;;;;;;;24.35;65.35;96328.22;4990973;28;24425;-73
2022/05/20 07:45:59;;;;;;;7.90;4.10;;;;;;;24.17;65.32;96333.69;4991020;28;24876;-73
2022/05/20 07:48:26;;;;;;;6.22;3.72;;;;;;;24.43;64.81;96336.19;4991150;28;24421;-73
2022/05/20 07:50:57;;;;;;;4.88;3.40;;;;;;;24.59;64.18;96327.41;4991270;28;24483;-73
2022/05/20 07:53:33;;;;;;;7.55;3.80;;;;;;;24.64;62.79;96322.41;4990997;28;24416;-73
2022/05/20 07:56:02;;;;;;;6.60;3.78;;;;;;;24.78;63.68;96328.81;4990972;28;24436;-73
2022/05/20 07:58:34;;;;;;;5.88;3.55;;;;;;;25.00;61.84;96319.28;4991056;28;24993;-73
2022/05/20 08:01:03;;;;;;;5.77;3.50;;;;;;;25.22;60.90;96315.91;4991094;28;24478;-73
2022/05/20 08:06:17;;;;;;;6.65;3.88;;;;;;;25.62;61.44;96313.16;4990996;28;24807;-73
2022/05/20 08:08:44;;;;;;;5.85;3.80;;;;;;;25.85;56.36;96314.03;4990831;28;24417;-73
2022/05/20 08:11:10;;;;;;;11.30;3.70;;;;;;;25.83;55.25;96316.00;4991075;28;24947;-73
2022/05/20 08:13:38;;;;;;;6.72;3.42;;;;;;;25.73;54.76;96304.78;4990932;28;24413;-73
2022/05/20 08:16:05;;;;;;;9.63;3.75;;;;;;;25.79;55.54;96298.81;4990839;28;24970;-73
2022/05/20 08:18:32;;;;;;;6.72;3.58;;;;;;;26.18;55.66;96303.94;4991060;28;24417;-73
2022/05/20 08:20:59;;;;;;;14.35;4.50;;;;;;;26.70;53.21;96302.28;4990842;28;24539;-73
2022/05/20 08:23:26;;;;;;;7.30;3.47;;;;;;;26.68;50.78;96296.31;4990659;28;24424;-73
2022/05/20 08:25:53;;;;;;;9.15;3.75;;;;;;;26.88;50.94;96301.88;4990989;28;24517;-73
2022/05/20 08:28:20;;;;;;;4.50;2.97;;;;;;;27.36;51.49;96304.91;4990899;28;24950;-73
2022/05/20 08:30:47;;;;;;;6.87;3.53;;;;;;;27.63;50.66;96296.22;4990961;28;24842;-73
2022/05/20 08:33:14;;;;;;;7.13;3.30;;;;;;;27.48;48.06;96296.28;4990492;28;25017;-73
2022/05/20 08:35:40;;;;;;;9.50;3.60;;;;;;;27.61;48.18;96300.06;4990488;28;24432;-73
2022/05/20 08:38:07;;;;;;;5.63;3.47;;;;;;;27.51;47.27;96287.06;4991195;28;24967;-73
2022/05/20 08:40:39;;;;;;;10.70;3.57;;;;;;;27.82;47.21;96283.31;4993443;28;24810;-73
2022/05/20 08:43:06;;;;;;;8.25;3.42;;;;;;;27.44;47.70;96280.84;4994477;28;24517;-73
2022/05/20 08:45:33;;;;;;;9.40;3.65;;;;;;;27.52;46.62;96277.28;4994294;28;24433;-73
2022/05/20 08:48:01;;;;;;;13.15;3.55;;;;;;;27.82;45.63;96281.47;4994466;28;24500;-73
2022/05/20 08:50:33;;;;;;;13.98;4.13;;;;;;;27.81;48.13;96285.16;4994232;28;24424;-73
2022/05/20 08:53:00;;;;;;;11.55;3.53;;;;;;;28.17;45.70;96284.19;4994361;28;24489;-73
2022/05/20 08:55:27;;;;;;;7.32;3.42;;;;;;;28.15;46.30;96283.59;4994849;28;24876;-73
2022/05/20 08:57:58;;;;;;;6.55;3.28;;;;;;;28.37;45.09;96287.03;4994338;28;25106;-74
2022/05/20 09:00:25;;;;;;;4.75;3.38;;;;;;;28.52;45.59;96282.44;4994176;28;24441;-74
2022/05/20 09:02:51;;;;;;;6.70;3.38;;;;;;;28.11;46.48;96277.81;4994105;28;24436;-75
2022/05/20 09:05:24;;;;;;;6.82;3.10;;;;;;;28.08;46.17;96280.88;4994125;28;24433;-75
2022/05/20 09:07:57;;;;;;;7.80;3.17;;;;;;;28.42;47.04;96273.97;4994953;28;24421;-75
2022/05/20 09:10:30;;;;;;;4.07;2.88;;;;;;;28.48;45.80;96265.19;4994496;28;24463;-76
2022/05/20 09:13:07;;;;;;;10.13;3.60;;;;;;;28.75;45.48;96255.47;4994120;28;24831;-75
2022/05/20 09:15:45;;;;;;;6.90;3.25;;;;;;;28.61;44.23;96251.94;4994019;28;24429;-75
2022/05/20 09:18:30;;;;;;;7.47;3.17;;;;;;;28.91;45.31;96241.78;4994097;28;24452;-74
2022/05/20 09:20:57;;;;;;;4.05;3.10;;;;;;;29.03;43.16;96238.59;4993761;28;24452;-75
2022/05/20 09:23:25;;;;;;;5.53;3.03;;;;;;;28.82;41.47;96248.34;4993595;28;24839;-75
2022/05/20 09:26:02;;;;;;;8.70;3.08;;;;;;;28.80;39.91;96245.03;4993398;28;24499;-75
2022/05/20 09:28:34;;;;;;;8.48;3.20;;;;;;;29.09;39.77;96238.63;4993934;28;24421;-74
2022/05/20 09:31:16;;;;;;;10.25;2.97;;;;;;;29.01;37.66;96229.97;4993761;28;25009;-77
2022/05/20 09:33:51;;;;;;;4.50;2.50;;;;;;;29.42;39.30;96229.88;4993575;28;24838;-77
2022/05/20 09:36:35;;;;;;;6.97;3.13;;;;;;;29.55;35.19;96227.19;4993476;28;24432;-76
2022/05/20 09:39:11;;;;;;;3.45;2.35;;;;;;;29.71;35.30;96226.03;4993970;28;24979;-76
2022/05/20 09:41:45;;;;;;;8.43;2.75;;;;;;;29.47;34.31;96226.59;4993717;28;24481;-75
2022/05/20 09:44:13;;;;;;;8.18;2.95;;;;;;;29.49;35.04;96217.34;4993216;28;24432;-75
2022/05/20 09:46:45;;;;;;;6.63;2.67;;;;;;;29.59;35.14;96216.97;4993518;28;24508;-75
2022/05/20 09:49:16;;;;;;;9.77;3.13;;;;;;;29.83;34.72;96213.69;4993480;28;24424;-75
2022/05/20 09:51:50;;;;;;;4.43;2.63;;;;;;;29.71;33.92;96201.19;4992900;28;24973;-76
2022/05/20 09:54:22;;;;;;;11.27;3.22;;;;;;;30.10;34.12;96197.63;4993016;28;24998;-75
2022/05/20 09:56:59;;;;;;;6.80;2.70;;;;;;;29.79;33.90;96206.31;4993144;28;24966;-75
2022/05/20 09:59:36;;;;;;;6.35;2.80;;;;;;;29.63;33.59;96205.69;4993223;28;24974;-75
2022/05/20 10:02:08;;;;;;;12.30;2.88;;;;;;;29.59;34.65;96201.81;4993203;28;24808;-75
2022/05/20 10:04:46;;;;;;;6.25;2.72;;;;;;;30.12;35.08;96200.94;4992902;28;24417;-76
2022/05/20 10:07:24;;;;;;;8.35;2.60;;;;;;;29.86;33.82;96201.78;4993106;28;24432;-75
2022/05/20 10:09:57;;;;;;;7.50;3.00;;;;;;;29.62;32.78;96204.03;4993262;28;24475;-75
2022/05/20 10:12:28;;;;;;;6.40;3.13;;;;;;;29.74;33.33;96201.59;4994032;28;24950;-75
2022/05/20 10:15:01;;;;;;;6.40;2.97;;;;;;;29.98;33.40;96210.81;4993758;28;24448;-75
2022/05/20 10:17:50;;;;;;;10.70;2.97;;;;;;;29.99;33.55;96203.63;4993183;28;24428;-75
2022/05/20 10:20:23;;;;;;;6.47;2.73;;;;;;;29.86;33.16;96201.78;4993024;28;24528;-75
2022/05/20 10:22:58;;;;;;;5.82;2.60;;;;;;;30.03;33.24;96212.84;4993015;28;24428;-76
2022/05/20 10:25:31;;;;;;;5.88;2.65;;;;;;;30.30;33.16;96201.13;4992265;28;24974;-75
2022/05/20 10:28:06;;;;;;;8.00;3.17;;;;;;;30.28;32.12;96205.84;4992730;28;24475;-76
2022/05/20 10:33:25;;;;;;;7.73;3.00;;;;;;;29.74;32.28;96185.59;4992440;28;24412;-75
2022/05/20 10:36:04;;;;;;;4.45;2.47;;;;;;;30.06;32.06;96185.72;4992331;28;24475;-75
2022/05/20 10:39:00;;;;;;;4.35;2.35;;;;;;;29.89;32.83;96185.38;4992614;28;24420;-75
2022/05/20 10:41:45;;;;;;;7.82;2.90;;;;;;;29.23;33.57;96186.13;4975591;28;24452;-75
2022/05/20 10:50:04;;;;;;;8.48;2.90;;;;;;;29.60;32.50;96171.41;4992603;28;24485;-75
2022/05/20 10:52:54;;;;;;;7.72;3.30;;;;;;;29.74;31.95;96168.72;4992303;28;24516;-75
2022/05/20 10:55:36;;;;;;;12.47;2.80;;;;;;;29.34;33.19;96158.03;4992233;28;24431;-75
2022/05/20 10:58:27;;;;;;;12.00;3.00;;;;;;;28.90;32.72;96154.84;4992449;28;24467;-76
2022/05/20 11:00:56;;;;;;;8.88;2.55;;;;;;;29.35;32.54;96151.66;4991300;28;24441;-75
2022/05/20 11:03:56;;;;;;;13.27;3.10;;;;;;;29.20;32.65;96140.38;4990989;28;24589;-75
2022/05/20 11:06:44;;;;;;;9.10;3.03;;;;;;;29.16;32.72;96126.63;4992029;28;24547;-73
2022/05/20 11:09:21;;;;;;;11.03;3.07;;;;;;;29.29;33.60;96123.13;4991928;28;24473;-74
2022/05/20 11:11:58;;;;;;;12.10;2.72;;;;;;;29.71;33.17;96108.56;4992049;28;24421;-74
2022/05/20 11:15:04;;;;;;;5.07;2.60;;;;;;;29.87;32.69;96101.97;4991737;28;24475;-75
2022/05/20 11:17:58;;;;;;;9.32;3.20;;;;;;;29.83;31.80;96079.38;4991981;28;24463;-76
2022/05/20 11:20:40;;;;;;;10.40;2.70;;;;;;;30.05;31.36;96085.28;4975855;28;25021;-74
2022/05/20 11:23:26;;;;;;;6.80;2.95;;;;;;;30.09;30.99;96059.78;4992041;28;24428;-75
2022/05/20 11:26:07;;;;;;;6.90;2.70;;;;;;;30.60;33.58;96037.56;4991606;28;24444;-75
2022/05/20 11:29:01;;;;;;;14.82;3.05;;;;;;;30.85;31.17;96027.75;4991737;28;24417;-75
2022/05/20 11:31:45;;;;;;;7.57;3.10;;;;;;;30.77;31.79;96019.16;4992269;28;24421;-75
2022/05/20 11:34:38;;;;;;;4.28;2.40;;;;;;;30.93;31.84;96018.66;4991674;28;24432;-75
2022/05/20 11:37:20;;;;;;;10.50;3.05;;;;;;;30.79;30.85;96035.81;4991471;28;24968;-75
2022/05/20 11:40:05;;;;;;;5.63;2.70;;;;;;;30.77;31.40;96044.03;4991623;28;24423;-74
2022/05/20 11:42:46;;;;;;;5.70;2.58;;;;;;;30.63;32.68;96037.16;4991604;28;25017;-74
2022/05/20 11:45:25;;;;;;;5.15;3.03;;;;;;;30.28;33.09;96028.69;4991153;28;24425;-74
2022/05/20 11:48:08;;;;;;;6.30;2.97;;;;;;;30.02;32.55;96032.28;4991570;28;24436;-75
2022/05/20 11:50:55;;;;;;;5.38;3.22;;;;;;;29.97;33.08;96021.44;4991472;28;24484;-74
2022/05/20 11:53:25;;;;;;;10.48;3.15;;;;;;;30.17;33.05;96029.38;4990896;28;24421;-74
2022/05/20 11:55:57;;;;;;;5.07;2.60;;;;;;;30.29;33.36;96020.47;4990979;28;24465;-74
2022/05/20 11:58:30;;;;;;;6.30;3.00;;;;;;;30.31;33.38;96013.06;4991288;28;24424;-74
2022/05/20 12:01:00;;;;;;;6.10;2.88;;;;;;;30.72;32.87;95998.41;4991160;28;24448;-74
2022/05/20 12:03:30;;;;;;;6.15;3.05;;;;;;;30.37;33.76;96003.38;4991135;28;24432;-74
2022/05/20 12:06:17;;;;;;;8.95;3.20;;;;;;;30.27;33.67;95997.69;4990695;28;24437;-75
2022/05/20 12:08:54;;;;;;;8.45;3.00;;;;;;;30.24;33.73;95990.91;4991300;28;24422;-74
2022/05/20 12:11:26;;;;;;;7.00;2.88;;;;;;;30.44;33.05;95980.09;4991465;28;24429;-75
2022/05/20 12:14:16;;;;;;;7.10;2.78;;;;;;;30.19;31.75;95982.72;4992832;28;24425;-74
2022/05/20 12:17:03;;;;;;;5.30;2.92;;;;;;;30.12;32.90;95971.22;4989969;28;24642;-75